sensor_id;sensor_type;location;lat;lon;timestamp;temperature;humidity
80964;DHT22;70425;59.322;13.486;2023-06-26T00:08:37;15.10;99.90
80964;DHT22;70425;59.322;13.486;2023-06-26T00:31:32;14.70;99.90
80964;DHT22;70425;59.322;13.486;2023-06-26T00:34:23;14.80;99.90
80964;DHT22;70425;59.322;13.486;2023-06-26T01:08:07;14.30;99.90
80964;DHT22;70425;59.322;13.486;2023-06-26T01:10:55;14.40;99.90
80964;DHT22;70425;59.322;13.486;2023-06-26T01:13:44;14.30;99.90
80964;DHT22;70425;59.322;13.486;2023-06-26T01:19:47;14.10;99.90
80964;DHT22;70425;59.322;13.486;2023-06-26T01:54:29;14.20;99.90
80964;DHT22;70425;59.322;13.486;2023-06-26T02:00:35;14.20;99.90
80964;DHT22;70425;59.322;13.486;2023-06-26T02:03:25;14.20;99.90
80964;DHT22;70425;59.322;13.486;2023-06-26T02:06:19;14.00;99.90
80964;DHT22;70425;59.322;13.486;2023-06-26T02:09:08;13.80;99.90
80964;DHT22;70425;59.322;13.486;2023-06-26T02:11:57;13.80;99.90
80964;DHT22;70425;59.322;13.486;2023-06-26T02:14:47;13.80;99.90
80964;DHT22;70425;59.322;13.486;2023-06-26T02:17:37;13.90;99.90
80964;DHT22;70425;59.322;13.486;2023-06-26T02:20:26;13.80;99.90
80964;DHT22;70425;59.322;13.486;2023-06-26T02:23:15;13.80;99.90
80964;DHT22;70425;59.322;13.486;2023-06-26T02:40:01;13.90;99.90
80964;DHT22;70425;59.322;13.486;2023-06-26T03:01:11;14.30;99.90
80964;DHT22;70425;59.322;13.486;2023-06-26T03:03:59;14.40;99.90
80964;DHT22;70425;59.322;13.486;2023-06-26T03:06:48;14.50;99.90
80964;DHT22;70425;59.322;13.486;2023-06-26T03:09:37;14.50;99.90
80964;DHT22;70425;59.322;13.486;2023-06-26T03:12:26;14.60;99.90
80964;DHT22;70425;59.322;13.486;2023-06-26T03:15:15;14.70;99.90
80964;DHT22;70425;59.322;13.486;2023-06-26T03:18:07;14.90;99.90
80964;DHT22;70425;59.322;13.486;2023-06-26T03:20:57;15.00;99.90
80964;DHT22;70425;59.322;13.486;2023-06-26T03:23:47;15.10;99.90
80964;DHT22;70425;59.322;13.486;2023-06-26T03:26:37;15.40;99.90
80964;DHT22;70425;59.322;13.486;2023-06-26T03:29:26;16.00;99.90
80964;DHT22;70425;59.322;13.486;2023-06-26T03:32:17;16.50;99.90
80964;DHT22;70425;59.322;13.486;2023-06-26T03:35:08;16.90;99.90
80964;DHT22;70425;59.322;13.486;2023-06-26T03:43:49;17.80;99.90
80964;DHT22;70425;59.322;13.486;2023-06-26T03:52:31;19.10;99.90
80964;DHT22;70425;59.322;13.486;2023-06-26T03:55:22;19.90;99.90
80964;DHT22;70425;59.322;13.486;2023-06-26T03:58:12;20.20;99.90
80964;DHT22;70425;59.322;13.486;2023-06-26T04:01:00;20.40;99.90
80964;DHT22;70425;59.322;13.486;2023-06-26T04:03:49;20.50;99.90
80964;DHT22;70425;59.322;13.486;2023-06-26T04:06:38;20.90;99.90
80964;DHT22;70425;59.322;13.486;2023-06-26T04:09:27;21.40;99.90
80964;DHT22;70425;59.322;13.486;2023-06-26T04:12:28;21.90;99.90
80964;DHT22;70425;59.322;13.486;2023-06-26T04:15:17;22.10;99.90
80964;DHT22;70425;59.322;13.486;2023-06-26T04:18:06;22.20;99.90
80964;DHT22;70425;59.322;13.486;2023-06-26T04:21:09;22.60;99.90
80964;DHT22;70425;59.322;13.486;2023-06-26T04:23:58;22.60;99.90
80964;DHT22;70425;59.322;13.486;2023-06-26T04:26:49;22.90;99.90
80964;DHT22;70425;59.322;13.486;2023-06-26T04:29:38;23.10;99.90
80964;DHT22;70425;59.322;13.486;2023-06-26T05:15:43;25.10;99.90
80964;DHT22;70425;59.322;13.486;2023-06-26T05:18:32;24.90;99.90
80964;DHT22;70425;59.322;13.486;2023-06-26T05:21:21;25.20;99.90
80964;DHT22;70425;59.322;13.486;2023-06-26T05:24:12;24.60;99.90
80964;DHT22;70425;59.322;13.486;2023-06-26T05:27:02;23.70;99.90
80964;DHT22;70425;59.322;13.486;2023-06-26T05:29:52;24.30;99.90
80964;DHT22;70425;59.322;13.486;2023-06-26T05:32:43;24.80;99.90
80964;DHT22;70425;59.322;13.486;2023-06-26T05:38:30;25.60;99.90
80964;DHT22;70425;59.322;13.486;2023-06-26T05:41:20;26.30;99.90
80964;DHT22;70425;59.322;13.486;2023-06-26T08:22:29;25.30;99.90
80964;DHT22;70425;59.322;13.486;2023-06-26T09:11:23;27.60;99.90
80964;DHT22;70425;59.322;13.486;2023-06-26T10:55:48;27.80;99.90
80964;DHT22;70425;59.322;13.486;2023-06-26T10:59:05;27.70;99.90
80964;DHT22;70425;59.322;13.486;2023-06-26T11:02:04;28.10;99.90
80964;DHT22;70425;59.322;13.486;2023-06-26T13:48:36;29.10;99.90
80964;DHT22;70425;59.322;13.486;2023-06-26T14:21:13;28.30;99.90
80964;DHT22;70425;59.322;13.486;2023-06-26T14:24:04;28.50;99.90
80964;DHT22;70425;59.322;13.486;2023-06-26T15:25:54;28.60;99.90
80964;DHT22;70425;59.322;13.486;2023-06-26T15:28:47;27.90;99.90
80964;DHT22;70425;59.322;13.486;2023-06-26T15:31:38;27.80;99.90
80964;DHT22;70425;59.322;13.486;2023-06-26T15:34:28;27.80;99.90
80964;DHT22;70425;59.322;13.486;2023-06-26T15:37:17;27.80;99.90
80964;DHT22;70425;59.322;13.486;2023-06-26T15:40:16;27.80;99.90
80964;DHT22;70425;59.322;13.486;2023-06-26T15:46:27;27.70;99.90
80964;DHT22;70425;59.322;13.486;2023-06-26T16:23:40;27.60;99.90
80964;DHT22;70425;59.322;13.486;2023-06-26T16:29:34;27.70;99.90
80964;DHT22;70425;59.322;13.486;2023-06-26T16:32:23;27.80;99.90
80964;DHT22;70425;59.322;13.486;2023-06-26T16:35:11;27.80;99.90
80964;DHT22;70425;59.322;13.486;2023-06-26T16:38:00;27.70;99.90
80964;DHT22;70425;59.322;13.486;2023-06-26T16:40:49;27.60;99.90
80964;DHT22;70425;59.322;13.486;2023-06-26T16:43:37;27.50;99.90
80964;DHT22;70425;59.322;13.486;2023-06-26T16:49:16;27.30;99.90
80964;DHT22;70425;59.322;13.486;2023-06-26T16:54:46;27.00;99.90
80964;DHT22;70425;59.322;13.486;2023-06-26T17:00:17;26.60;99.90
80964;DHT22;70425;59.322;13.486;2023-06-26T17:03:06;26.40;99.90
80964;DHT22;70425;59.322;13.486;2023-06-26T17:05:55;26.20;99.90
80964;DHT22;70425;59.322;13.486;2023-06-26T17:08:43;26.30;99.90
80964;DHT22;70425;59.322;13.486;2023-06-26T17:11:32;26.40;99.90
80964;DHT22;70425;59.322;13.486;2023-06-26T17:14:20;26.10;99.90
80964;DHT22;70425;59.322;13.486;2023-06-26T17:17:09;25.90;99.90
80964;DHT22;70425;59.322;13.486;2023-06-26T17:19:57;25.80;99.90
80964;DHT22;70425;59.322;13.486;2023-06-26T17:22:46;25.80;99.90
80964;DHT22;70425;59.322;13.486;2023-06-26T17:25:35;25.50;99.90
80964;DHT22;70425;59.322;13.486;2023-06-26T17:28:24;25.50;99.90
80964;DHT22;70425;59.322;13.486;2023-06-26T17:33:59;25.40;99.90
80964;DHT22;70425;59.322;13.486;2023-06-26T17:36:47;25.40;99.90
80964;DHT22;70425;59.322;13.486;2023-06-26T17:39:36;25.30;99.90
80964;DHT22;70425;59.322;13.486;2023-06-26T17:42:24;25.20;99.90
80964;DHT22;70425;59.322;13.486;2023-06-26T17:45:13;25.10;99.90
80964;DHT22;70425;59.322;13.486;2023-06-26T17:48:02;24.80;99.90
80964;DHT22;70425;59.322;13.486;2023-06-26T17:50:52;23.90;99.90
80964;DHT22;70425;59.322;13.486;2023-06-26T17:53:40;23.40;99.90
80964;DHT22;70425;59.322;13.486;2023-06-26T17:56:29;23.10;99.90
80964;DHT22;70425;59.322;13.486;2023-06-26T17:59:19;23.00;99.90
80964;DHT22;70425;59.322;13.486;2023-06-26T18:02:07;23.00;99.90
80964;DHT22;70425;59.322;13.486;2023-06-26T18:04:57;23.00;99.90
80964;DHT22;70425;59.322;13.486;2023-06-26T18:07:46;23.00;99.90
80964;DHT22;70425;59.322;13.486;2023-06-26T18:10:35;22.90;99.90
80964;DHT22;70425;59.322;13.486;2023-06-26T18:13:24;22.50;99.90
80964;DHT22;70425;59.322;13.486;2023-06-26T18:18:52;22.00;99.90
80964;DHT22;70425;59.322;13.486;2023-06-26T18:21:41;21.80;99.90
80964;DHT22;70425;59.322;13.486;2023-06-26T18:24:30;21.70;99.90
80964;DHT22;70425;59.322;13.486;2023-06-26T18:27:18;21.60;99.90
80964;DHT22;70425;59.322;13.486;2023-06-26T18:45:55;21.30;99.90
80964;DHT22;70425;59.322;13.486;2023-06-26T18:48:45;21.30;99.90
80964;DHT22;70425;59.322;13.486;2023-06-26T18:51:34;21.20;99.90
80964;DHT22;70425;59.322;13.486;2023-06-26T18:54:23;21.00;99.90
80964;DHT22;70425;59.322;13.486;2023-06-26T18:57:12;20.90;99.90
80964;DHT22;70425;59.322;13.486;2023-06-26T19:00:01;20.70;99.90
80964;DHT22;70425;59.322;13.486;2023-06-26T19:02:49;20.70;99.90
80964;DHT22;70425;59.322;13.486;2023-06-26T19:05:37;20.40;99.90
80964;DHT22;70425;59.322;13.486;2023-06-26T19:08:26;20.20;99.90
80964;DHT22;70425;59.322;13.486;2023-06-26T19:11:16;20.00;99.90
80964;DHT22;70425;59.322;13.486;2023-06-26T19:14:05;20.00;99.90
80964;DHT22;70425;59.322;13.486;2023-06-26T19:19:34;19.90;99.90
80964;DHT22;70425;59.322;13.486;2023-06-26T19:22:24;19.90;99.90
80964;DHT22;70425;59.322;13.486;2023-06-26T19:25:14;19.90;99.90
80964;DHT22;70425;59.322;13.486;2023-06-26T19:28:03;19.80;99.90
80964;DHT22;70425;59.322;13.486;2023-06-26T19:33:31;19.70;99.90
80964;DHT22;70425;59.322;13.486;2023-06-26T19:39:04;19.70;99.90
80964;DHT22;70425;59.322;13.486;2023-06-26T19:41:53;19.80;99.90
80964;DHT22;70425;59.322;13.486;2023-06-26T19:44:42;19.70;99.90
80964;DHT22;70425;59.322;13.486;2023-06-26T19:47:31;19.60;99.90
80964;DHT22;70425;59.322;13.486;2023-06-26T19:50:20;19.60;99.90
80964;DHT22;70425;59.322;13.486;2023-06-26T19:53:09;19.70;99.90
80964;DHT22;70425;59.322;13.486;2023-06-26T19:55:57;19.80;99.90
80964;DHT22;70425;59.322;13.486;2023-06-26T20:01:27;19.80;99.90
80964;DHT22;70425;59.322;13.486;2023-06-26T20:06:56;19.80;99.90
80964;DHT22;70425;59.322;13.486;2023-06-26T20:09:46;19.80;99.90
80964;DHT22;70425;59.322;13.486;2023-06-26T20:12:35;19.80;99.90
80964;DHT22;70425;59.322;13.486;2023-06-26T20:18:05;19.70;99.90
80964;DHT22;70425;59.322;13.486;2023-06-26T20:20:54;19.60;99.90
80964;DHT22;70425;59.322;13.486;2023-06-26T20:23:43;19.60;99.90
80964;DHT22;70425;59.322;13.486;2023-06-26T20:26:32;19.60;99.90
80964;DHT22;70425;59.322;13.486;2023-06-26T20:32:03;19.40;99.90
80964;DHT22;70425;59.322;13.486;2023-06-26T20:34:52;19.40;99.90
80964;DHT22;70425;59.322;13.486;2023-06-26T20:37:41;19.50;99.90
80964;DHT22;70425;59.322;13.486;2023-06-26T20:40:31;19.40;99.90
80964;DHT22;70425;59.322;13.486;2023-06-26T20:46:03;19.40;99.90
80964;DHT22;70425;59.322;13.486;2023-06-26T20:51:36;19.30;99.90
80964;DHT22;70425;59.322;13.486;2023-06-26T20:57:08;19.30;99.90
80964;DHT22;70425;59.322;13.486;2023-06-26T20:59:56;19.40;99.90
80964;DHT22;70425;59.322;13.486;2023-06-26T21:02:45;19.40;99.90
80964;DHT22;70425;59.322;13.486;2023-06-26T21:05:34;19.40;99.90
80964;DHT22;70425;59.322;13.486;2023-06-26T21:11:04;19.30;99.90
80964;DHT22;70425;59.322;13.486;2023-06-26T21:13:53;19.40;99.90
80964;DHT22;70425;59.322;13.486;2023-06-26T21:16:42;19.40;99.90
80964;DHT22;70425;59.322;13.486;2023-06-26T21:19:30;19.50;99.90
80964;DHT22;70425;59.322;13.486;2023-06-26T21:25:06;19.60;99.90
80964;DHT22;70425;59.322;13.486;2023-06-26T21:27:55;19.70;99.90
80964;DHT22;70425;59.322;13.486;2023-06-26T21:30:44;19.80;99.90
80964;DHT22;70425;59.322;13.486;2023-06-26T21:36:18;19.70;99.90
80964;DHT22;70425;59.322;13.486;2023-06-26T21:39:07;19.70;99.90
80964;DHT22;70425;59.322;13.486;2023-06-26T21:44:34;19.70;99.90
80964;DHT22;70425;59.322;13.486;2023-06-26T21:47:23;19.50;99.90
80964;DHT22;70425;59.322;13.486;2023-06-26T21:52:53;19.30;99.90
80964;DHT22;70425;59.322;13.486;2023-06-26T21:55:42;19.30;99.90
80964;DHT22;70425;59.322;13.486;2023-06-26T22:01:13;19.30;99.90
80964;DHT22;70425;59.322;13.486;2023-06-26T22:04:02;19.50;99.90
80964;DHT22;70425;59.322;13.486;2023-06-26T22:06:50;19.60;99.90
80964;DHT22;70425;59.322;13.486;2023-06-26T22:09:38;19.50;99.90
80964;DHT22;70425;59.322;13.486;2023-06-26T22:15:10;19.50;99.90
80964;DHT22;70425;59.322;13.486;2023-06-26T22:17:59;19.50;99.90
80964;DHT22;70425;59.322;13.486;2023-06-26T22:20:48;19.50;99.90
80964;DHT22;70425;59.322;13.486;2023-06-26T22:26:19;19.50;99.90
80964;DHT22;70425;59.322;13.486;2023-06-26T22:29:08;19.30;99.90
80964;DHT22;70425;59.322;13.486;2023-06-26T22:34:36;19.10;99.90
80964;DHT22;70425;59.322;13.486;2023-06-26T22:37:25;19.10;99.90
80964;DHT22;70425;59.322;13.486;2023-06-26T22:40:14;19.20;99.90
80964;DHT22;70425;59.322;13.486;2023-06-26T22:45:43;19.30;99.90
80964;DHT22;70425;59.322;13.486;2023-06-26T22:51:16;19.30;99.90
80964;DHT22;70425;59.322;13.486;2023-06-26T22:54:04;19.10;99.90
80964;DHT22;70425;59.322;13.486;2023-06-26T22:56:53;19.10;99.90
80964;DHT22;70425;59.322;13.486;2023-06-26T22:59:42;19.20;99.90
80964;DHT22;70425;59.322;13.486;2023-06-26T23:02:30;19.20;99.90
80964;DHT22;70425;59.322;13.486;2023-06-26T23:05:19;19.20;99.90
80964;DHT22;70425;59.322;13.486;2023-06-26T23:08:07;19.00;99.90
80964;DHT22;70425;59.322;13.486;2023-06-26T23:13:36;18.80;99.90
80964;DHT22;70425;59.322;13.486;2023-06-26T23:16:24;18.80;99.90
80964;DHT22;70425;59.322;13.486;2023-06-26T23:19:13;18.80;99.90
80964;DHT22;70425;59.322;13.486;2023-06-26T23:24:41;18.90;99.90
80964;DHT22;70425;59.322;13.486;2023-06-26T23:27:29;19.00;99.90
80964;DHT22;70425;59.322;13.486;2023-06-26T23:33:00;18.90;99.90
80964;DHT22;70425;59.322;13.486;2023-06-26T23:35:52;18.80;99.90
80964;DHT22;70425;59.322;13.486;2023-06-26T23:38:41;18.80;99.90
80964;DHT22;70425;59.322;13.486;2023-06-26T23:41:30;18.70;99.90
80964;DHT22;70425;59.322;13.486;2023-06-26T23:46:59;18.80;99.90
80964;DHT22;70425;59.322;13.486;2023-06-26T23:52:30;18.80;99.90
80964;DHT22;70425;59.322;13.486;2023-06-26T23:55:18;18.70;99.90
80964;DHT22;70425;59.322;13.486;2023-06-26T23:58:07;18.60;99.90
